Catàleg de serveis del Meteocat
Campanya meteocatpedra

Dades de l'estació automàtica Tivissa

?
?
Resum diari 21:30 TU
Dades diàries de l'estació meteorològica
Temperatura mitjana 24.9 °C
Temperatura màxima 32.1 °C 14:35 TU
Temperatura mínima 19.3 °C 5:12 TU
Humitat relativa mitjana 57%
Precipitació acumulada 0.0 mm
Ratxa màxima del vent (10 m) 38.5 km/h - 167º 17:29 TU
Irradiació solar global 28.6 MJ/m2

El tram horari està expressat en Temps Universal (TU). Cal sumar una hora en horari d'hivern i dues en horari d'estiu per passar a l'hora oficial.

Tivissa

Metadades estació meteorol´gica
Municipi Tivissa
Comarca Ribera d'Ebre
Altitud 317 m
Data alta 26.03.2015
Estat actual Operativa
Dades de període
Període
TU
TM
°C
TX
°C
TN
°C
HRM
%
PPT
mm
VVM (10 m)
km/h
DVM (10 m)
graus
VVX (10 m)
km/h
RS
W/m2
00:00 - 00:30 22.8 23.0 22.6 72 0.0 7.6 226 17.6 0
00:30 - 01:00 22.6 22.7 22.5 74 0.0 7.6 254 16.9 0
01:00 - 01:30 22.4 22.6 22.2 71 0.0 9.4 255 19.4 0
01:30 - 02:00 22.1 22.3 21.9 67 0.0 9.7 262 19.4 0
02:00 - 02:30 21.6 22.0 21.4 65 0.0 7.9 267 19.4 0
02:30 - 03:00 21.2 21.5 20.7 65 0.0 6.8 272 16.2 0
03:00 - 03:30 20.3 20.7 20.0 68 0.0 3.6 268 9.0 0
03:30 - 04:00 19.8 20.0 19.7 69 0.0 3.6 261 11.2 0
04:00 - 04:30 19.6 19.7 19.5 69 0.0 3.6 268 11.2 0
04:30 - 05:00 19.5 19.6 19.4 70 0.0 4.3 282 12.6 4
05:00 - 05:30 19.4 19.5 19.3 70 0.0 5.0 310 14.4 36
05:30 - 06:00 19.9 20.1 19.6 69 0.0 6.8 311 20.9 109
06:00 - 06:30 20.3 20.6 20.1 67 0.0 12.2 325 21.2 195
06:30 - 07:00 20.9 21.2 20.6 65 0.0 11.2 319 23.4 284
07:00 - 07:30 21.7 22.3 21.2 62 0.0 8.6 310 22.3 382
07:30 - 08:00 22.4 22.8 21.9 58 0.0 11.2 315 23.0 473
08:00 - 08:30 23.2 24.0 22.6 55 0.0 9.0 313 23.4 570
08:30 - 09:00 23.9 24.7 23.3 52 0.0 10.1 304 23.4 649
09:00 - 09:30 24.8 25.7 24.0 50 0.0 8.3 293 23.0 737
09:30 - 10:00 25.9 26.9 25.4 46 0.0 8.3 283 25.9 803
10:00 - 10:30 26.4 27.0 26.0 44 0.0 10.4 274 22.7 851
10:30 - 11:00 27.0 27.7 26.3 42 0.0 11.5 262 29.5 907
11:00 - 11:30 27.3 28.3 26.4 42 0.0 9.4 267 22.3 939
11:30 - 12:00 28.2 29.1 27.4 40 0.0 9.4 274 22.3 951
12:00 - 12:30 28.6 29.8 28.0 39 0.0 12.2 312 26.6 951
12:30 - 13:00 29.5 30.4 28.7 37 0.0 8.6 318 21.6 928
13:00 - 13:30 30.5 30.9 29.8 36 0.0 6.5 288 17.6 885
13:30 - 14:00 30.8 31.9 29.7 35 0.0 7.9 323 18.0 859
14:00 - 14:30 31.4 32.0 30.8 35 0.0 8.6 308 21.6 817
14:30 - 15:00 31.2 32.1 30.1 40 0.0 11.2 200 26.3 729
15:00 - 15:30 30.4 31.0 29.6 43 0.0 16.6 184 32.4 630
15:30 - 16:00 29.2 29.7 28.8 47 0.0 19.1 186 33.5 549
16:00 - 16:30 29.0 29.5 28.6 47 0.0 21.6 184 32.8 528
16:30 - 17:00 28.4 28.8 28.0 52 0.0 23.0 184 36.4 410
17:00 - 17:30 27.8 28.2 27.4 55 0.0 24.1 183 38.5 324
17:30 - 18:00 27.0 27.4 26.7 58 0.0 23.4 184 38.2 226
18:00 - 18:30 26.5 26.8 26.2 62 0.0 20.2 179 33.5 132
18:30 - 19:00 26.1 26.2 26.0 61 0.0 15.5 179 33.5 36
19:00 - 19:30 25.3 26.1 24.8 65 0.0 7.6 74 23.8 8
19:30 - 20:00 24.3 24.7 24.1 70 0.0 10.4 70 24.1 0
20:00 - 20:30 23.8 24.1 23.7 68 0.0 11.5 81 23.8 0
20:30 - 21:00 23.6 23.7 23.5 67 0.0 13.3 80 20.9 0
21:00 - 21:30 23.5 23.6 23.5 68 0.0 13.7 107 21.6 0
21:30 - 22:00 23.6 23.7 23.4 65 0.0 14.4 121 23.4 0

Les dades en taronja només han passat un control de qualitat automàtic. Resta pendent la seva validació definitiva.